Time;durP1;ratioP1;P1;durP2;ratioP2;P2;SDS_P1;SDS_P2;PMS_P1;PMS_P2;Temp;Humidity;BMP_temperature;BMP_pressure;BME280_temperature;BME280_humidity;BME280_pressure;Samples;Min_cycle;Max_cycle;Signal;HPM_P1;HPM_P2
2022/12/04 00:00:12;;;;;;;30.20;12.45;;;0.10;99.90;;;;;;5000039;28;20475;-88
2022/12/04 00:02:38;;;;;;;15.70;12.57;;;0.10;99.90;;;;;;4997318;28;20062;-82
2022/12/04 00:05:05;;;;;;;15.95;14.10;;;0.10;99.90;;;;;;4990161;28;20036;-84
2022/12/04 00:07:31;;;;;;;32.55;16.70;;;0.00;99.90;;;;;;5000918;28;20026;-86
2022/12/04 00:09:56;;;;;;;56.60;16.05;;;0.10;99.90;;;;;;4989497;28;20554;-83
2022/12/04 00:12:22;;;;;;;18.83;10.50;;;0.10;99.90;;;;;;5000815;28;20026;-83
2022/12/04 00:14:48;;;;;;;22.00;11.90;;;0.10;99.90;;;;;;4991430;28;20820;-85
2022/12/04 00:17:14;;;;;;;32.72;12.23;;;0.10;99.90;;;;;;4993331;28;20027;-87
2022/12/04 00:19:39;;;;;;;33.50;12.77;;;0.10;99.90;;;;;;4999099;28;20671;-86
2022/12/04 00:22:05;;;;;;;21.35;16.08;;;0.10;99.90;;;;;;4993010;28;20504;-84
2022/12/04 00:24:31;;;;;;;21.92;14.27;;;0.00;99.90;;;;;;5000060;28;20492;-83
2022/12/04 00:26:56;;;;;;;26.13;14.38;;;0.00;99.90;;;;;;4990653;28;20065;-83
2022/12/04 00:29:22;;;;;;;54.10;19.02;;;0.00;99.90;;;;;;5002543;28;20046;-85
2022/12/04 00:31:48;;;;;;;21.30;13.82;;;0.00;99.90;;;;;;5001693;28;20088;-83
2022/12/04 00:34:13;;;;;;;16.35;14.65;;;-0.10;99.90;;;;;;4996520;28;20452;-82
2022/12/04 00:36:39;;;;;;;17.23;11.07;;;-0.10;99.90;;;;;;4969767;28;20036;-81
2022/12/04 00:39:05;;;;;;;14.95;11.85;;;0.00;99.90;;;;;;4995873;28;20092;-86
2022/12/04 00:41:31;;;;;;;14.23;12.52;;;0.00;99.90;;;;;;5002257;28;20088;-85
2022/12/04 00:43:58;;;;;;;8.95;8.10;;;-0.10;99.90;;;;;;5001723;28;20080;-83
2022/12/04 00:46:24;;;;;;;18.90;13.85;;;-0.10;99.90;;;;;;4999223;28;20609;-82
2022/12/04 00:48:51;;;;;;;14.85;11.82;;;-0.10;99.90;;;;;;4999200;28;20093;-81
2022/12/04 00:51:22;;;;;;;17.10;10.95;;;0.00;99.90;;;;;;4978817;28;20745;-82
2022/12/04 00:53:49;;;;;;;21.58;12.27;;;0.10;99.90;;;;;;5002691;28;20077;-82
2022/12/04 00:56:26;;;;;;;17.13;14.45;;;0.00;99.90;;;;;;4996130;28;20031;-86
2022/12/04 00:58:54;;;;;;;15.60;10.77;;;0.00;99.90;;;;;;5005585;28;20034;-84
2022/12/04 01:01:21;;;;;;;14.00;11.85;;;0.00;99.90;;;;;;4996986;28;20152;-80
2022/12/04 01:03:47;;;;;;;17.58;14.02;;;-0.10;99.90;;;;;;4995480;28;20054;-84
2022/12/04 01:06:23;;;;;;;13.15;11.77;;;0.00;99.90;;;;;;5000636;28;20045;-79
2022/12/04 01:08:50;;;;;;;14.57;11.25;;;-0.10;99.90;;;;;;4997255;28;20040;-81
2022/12/04 01:11:16;;;;;;;24.30;12.60;;;0.00;99.90;;;;;;5000760;28;20467;-85
2022/12/04 01:13:42;;;;;;;29.92;12.50;;;-0.10;99.90;;;;;;4996287;28;20030;-82
2022/12/04 01:16:07;;;;;;;18.13;14.85;;;0.10;99.90;;;;;;5000015;28;20512;-83
2022/12/04 01:18:33;;;;;;;28.50;14.95;;;0.10;99.90;;;;;;4995657;28;20073;-84
2022/12/04 01:20:58;;;;;;;29.23;16.85;;;0.10;99.90;;;;;;4995074;28;20745;-85
2022/12/04 01:23:24;;;;;;;47.20;15.23;;;0.10;99.90;;;;;;5000931;28;20084;-81
2022/12/04 01:25:55;;;;;;;31.65;16.67;;;0.10;99.90;;;;;;4995930;28;20034;-88
2022/12/04 01:28:21;;;;;;;19.55;14.18;;;0.10;99.90;;;;;;5001480;28;20041;-86
2022/12/04 01:31:03;;;;;;;25.17;9.68;;;0.00;99.90;;;;;;4996815;28;20027;-83
2022/12/04 01:33:30;;;;;;;15.40;11.13;;;0.00;99.90;;;;;;4998955;28;20030;-81
2022/12/04 01:35:58;;;;;;;15.43;10.85;;;0.00;99.90;;;;;;4996481;28;20531;-84
2022/12/04 01:38:24;;;;;;;16.45;12.07;;;0.00;99.90;;;;;;5003450;28;20057;-86
2022/12/04 01:40:50;;;;;;;16.63;10.18;;;-0.10;99.90;;;;;;5000225;28;20030;-82
2022/12/04 01:43:17;;;;;;;14.02;11.70;;;0.00;99.90;;;;;;4974388;28;20042;-80
2022/12/04 01:45:46;;;;;;;14.70;10.48;;;0.00;99.90;;;;;;5001737;28;20044;-83
2022/12/04 01:48:21;;;;;;;16.25;13.55;;;0.00;99.90;;;;;;4991287;28;20054;-85
2022/12/04 01:50:52;;;;;;;16.80;13.10;;;-0.10;99.90;;;;;;5001548;28;20029;-84
2022/12/04 01:53:19;;;;;;;25.55;12.77;;;-0.10;99.90;;;;;;4996002;28;20041;-81
2022/12/04 01:55:45;;;;;;;23.33;14.07;;;-0.10;99.90;;;;;;4981408;28;20128;-82
2022/12/04 01:58:12;;;;;;;29.80;12.60;;;-0.10;99.90;;;;;;4999223;28;20030;-85
2022/12/04 02:00:38;;;;;;;17.15;12.85;;;0.00;99.90;;;;;;4997454;28;20073;-84
2022/12/04 02:03:03;;;;;;;42.30;14.23;;;0.10;99.90;;;;;;5001285;28;20034;-86
2022/12/04 02:05:29;;;;;;;87.93;16.35;;;0.10;99.90;;;;;;4994921;28;20128;-82
2022/12/04 02:07:58;;;;;;;93.38;14.93;;;0.00;99.90;;;;;;4997658;28;20084;-81
2022/12/04 02:10:39;;;;;;;53.55;12.05;;;0.00;99.90;;;;;;4993396;28;20014;-82
2022/12/04 02:13:31;;;;;;;49.67;12.60;;;0.00;99.90;;;;;;4977296;28;20045;-85
2022/12/04 02:16:21;;;;;;;94.10;15.45;;;-0.10;99.90;;;;;;5010354;28;20049;-85
2022/12/04 02:19:11;;;;;;;65.67;15.03;;;-0.20;99.90;;;;;;4995079;28;20053;-85
2022/12/04 02:21:42;;;;;;;175.50;23.70;;;-0.10;99.90;;;;;;4998573;28;20069;-83
2022/12/04 02:24:32;;;;;;;22.23;11.68;;;-0.20;99.90;;;;;;4992752;28;20040;-79
2022/12/04 02:27:39;;;;;;;51.83;13.88;;;-0.10;99.90;;;;;;4995479;28;20034;-81
2022/12/04 02:30:07;;;;;;;48.63;13.25;;;-0.10;99.90;;;;;;4968132;28;20049;-81
2022/12/04 02:32:57;;;;;;;49.38;13.88;;;-0.10;99.90;;;;;;5000245;28;20039;-83
2022/12/04 02:35:40;;;;;;;104.78;17.17;;;0.00;99.90;;;;;;4993714;28;20561;-84
2022/12/04 02:38:34;;;;;;;155.68;20.25;;;-0.10;99.90;;;;;;5000696;28;20026;-84
2022/12/04 02:41:11;;;;;;;76.03;44.80;;;0.00;99.90;;;;;;4991825;28;20037;-87
2022/12/04 02:43:49;;;;;;;10.88;9.90;;;-0.10;99.90;;;;;;5002720;28;20022;-84
2022/12/04 02:46:25;;;;;;;14.25;12.18;;;-0.10;99.90;;;;;;4992694;28;20029;-84
2022/12/04 02:48:54;;;;;;;19.73;16.90;;;-0.20;99.90;;;;;;5002057;28;20042;-87
2022/12/04 02:51:22;;;;;;;59.90;12.20;;;-0.20;99.90;;;;;;4998325;28;20578;-83
2022/12/04 02:54:03;;;;;;;14.63;9.80;;;-0.10;99.90;;;;;;4998636;28;20403;-81
2022/12/04 02:56:33;;;;;;;26.42;11.80;;;-0.10;99.90;;;;;;4996095;28;20136;-82
2022/12/04 02:59:07;;;;;;;22.42;12.32;;;-0.10;99.90;;;;;;4990360;28;20515;-82
2022/12/04 03:01:38;;;;;;;13.98;10.95;;;-0.10;99.90;;;;;;4994704;28;20504;-84
2022/12/04 03:04:10;;;;;;;27.80;12.10;;;-0.10;99.90;;;;;;5010500;28;20033;-83
2022/12/04 03:06:39;;;;;;;27.77;12.70;;;0.00;99.90;;;;;;5003902;28;20034;-79
2022/12/04 03:09:19;;;;;;;48.53;12.75;;;-0.10;99.90;;;;;;4998010;28;20025;-85
2022/12/04 03:11:53;;;;;;;36.60;17.02;;;0.00;99.90;;;;;;4991442;28;20031;-83
2022/12/04 03:14:33;;;;;;;23.23;13.82;;;0.00;99.90;;;;;;4990523;28;20140;-86
2022/12/04 03:17:02;;;;;;;;;;;0.10;99.90;;;;;;4995441;28;20018;-82
2022/12/04 03:19:40;;;;;;;24.20;11.48;;;0.00;99.90;;;;;;5028402;28;19920;-82
2022/12/04 03:22:11;;;;;;;30.08;11.25;;;0.00;99.90;;;;;;4985850;28;20067;-82
2022/12/04 03:24:43;;;;;;;15.23;11.40;;;0.00;99.90;;;;;;4996818;28;20112;-82
2022/12/04 03:27:32;;;;;;;57.28;12.23;;;0.00;99.90;;;;;;4993471;28;20041;-85
2022/12/04 03:30:17;;;;;;;22.33;13.00;;;-0.10;99.90;;;;;;4994363;28;20145;-85
2022/12/04 03:33:06;;;;;;;38.53;13.30;;;0.00;99.90;;;;;;4988119;28;20068;-82
2022/12/04 03:35:45;;;;;;;19.77;13.63;;;0.00;99.90;;;;;;4992208;28;20524;-83
2022/12/04 03:38:50;;;;;;;17.48;13.23;;;0.10;99.90;;;;;;4991093;28;20022;-84
2022/12/04 03:41:28;;;;;;;24.23;11.75;;;0.10;99.90;;;;;;5000760;28;20119;-87
2022/12/04 03:44:25;;;;;;;54.55;14.35;;;0.10;99.90;;;;;;4992898;28;20033;-85
2022/12/04 03:47:16;;;;;;;24.27;11.48;;;0.00;99.90;;;;;;4999544;28;20128;-82
2022/12/04 03:49:56;;;;;;;18.25;10.30;;;0.20;99.90;;;;;;4988552;28;20437;-85
2022/12/04 03:52:49;;;;;;;38.33;12.03;;;0.10;99.90;;;;;;4986744;28;20069;-85
2022/12/04 03:55:20;;;;;;;14.45;11.25;;;0.10;99.90;;;;;;4978395;28;20053;-82
2022/12/04 03:57:47;;;;;;;33.92;13.85;;;0.00;99.90;;;;;;5000308;28;20111;-85
2022/12/04 04:00:20;;;;;;;59.22;15.82;;;0.00;99.90;;;;;;4998463;28;20030;-86
2022/12/04 04:03:02;;;;;;;18.50;11.68;;;-0.10;99.90;;;;;;4992571;28;20046;-86
2022/12/04 04:05:30;;;;;;;14.18;10.63;;;-0.10;99.90;;;;;;4998469;28;20080;-84
2022/12/04 04:08:24;;;;;;;22.40;11.75;;;-0.10;99.90;;;;;;4996556;28;20030;-84
2022/12/04 04:10:46;;;;;;;12.07;10.38;;;0.00;99.90;;;;;;5002692;28;20041;-84
2022/12/04 04:24:29;;;;;;;11.32;10.20;;;0.00;99.90;;;;;;4997131;28;20041;-84
2022/12/04 04:26:57;;;;;;;16.02;11.45;;;-0.10;99.90;;;;;;5003874;28;20439;-87
2022/12/04 04:29:23;;;;;;;13.70;11.05;;;0.00;99.90;;;;;;5000546;28;20095;-85
2022/12/04 04:32:19;;;;;;;19.27;12.88;;;0.20;99.90;;;;;;4999775;28;20034;-86
2022/12/04 04:35:09;;;;;;;28.85;13.85;;;0.20;99.90;;;;;;5000739;28;20101;-84
2022/12/04 04:38:00;;;;;;;13.63;10.32;;;-0.10;99.90;;;;;;4994514;28;20033;-85
2022/12/04 04:40:57;;;;;;;17.10;10.98;;;0.00;99.90;;;;;;5000572;28;20038;-82
2022/12/04 04:43:38;;;;;;;11.77;10.35;;;0.00;99.90;;;;;;4981291;28;20096;-84
2022/12/04 04:46:17;;;;;;;16.10;12.90;;;0.10;99.90;;;;;;4993584;28;20026;-84
2022/12/04 04:48:51;;;;;;;25.88;12.32;;;0.10;99.90;;;;;;4996426;28;20042;-85
2022/12/04 04:51:18;;;;;;;22.33;13.07;;;0.10;99.90;;;;;;5000850;28;20535;-83
2022/12/04 04:53:51;;;;;;;13.88;12.02;;;0.00;99.90;;;;;;4998669;28;20073;-85
2022/12/04 04:56:17;;;;;;;15.95;11.48;;;0.20;99.90;;;;;;5000987;28;20031;-82
2022/12/04 04:58:43;;;;;;;14.52;11.88;;;0.10;99.90;;;;;;5001074;28;20219;-86
2022/12/04 05:01:14;;;;;;;65.07;15.27;;;0.00;99.90;;;;;;4999256;28;20038;-89
2022/12/04 05:03:42;;;;;;;59.63;15.32;;;0.10;99.90;;;;;;4994944;28;20088;-83
2022/12/04 05:06:08;;;;;;;69.22;14.93;;;0.10;99.90;;;;;;4989608;28;20548;-83
2022/12/04 05:08:35;;;;;;;33.45;13.82;;;0.20;99.90;;;;;;5001630;28;20064;-85
2022/12/04 05:11:02;;;;;;;77.13;17.17;;;0.20;99.90;;;;;;4994468;28;20102;-82
2022/12/04 05:13:29;;;;;;;41.47;13.20;;;0.10;99.90;;;;;;4997279;28;20030;-82
2022/12/04 05:16:01;;;;;;;36.05;13.75;;;0.20;99.90;;;;;;4999142;28;20119;-80
2022/12/04 05:18:27;;;;;;;38.65;13.80;;;0.10;99.90;;;;;;5001861;28;20068;-86
2022/12/04 05:20:55;;;;;;;75.40;14.43;;;0.10;99.90;;;;;;4992611;28;20045;-86
2022/12/04 05:23:23;;;;;;;87.47;15.65;;;0.10;99.90;;;;;;4986711;28;20035;-85
2022/12/04 05:25:49;;;;;;;33.78;13.35;;;0.00;99.90;;;;;;5001454;28;20496;-83
2022/12/04 05:28:15;;;;;;;39.85;14.98;;;0.00;99.90;;;;;;4995493;28;20119;-85
2022/12/04 05:30:40;;;;;;;35.17;11.43;;;-0.10;99.90;;;;;;4997086;28;20388;-84
2022/12/04 05:33:06;;;;;;;98.60;18.38;;;-0.20;99.90;;;;;;4999787;28;20022;-82
2022/12/04 05:35:32;;;;;;;74.55;15.65;;;-0.20;99.90;;;;;;4985329;28;20114;-83
2022/12/04 05:37:57;;;;;;;42.50;13.50;;;0.00;99.90;;;;;;4994346;28;20540;-86
2022/12/04 05:40:23;;;;;;;63.70;15.75;;;0.00;99.90;;;;;;4991682;28;20045;-84
2022/12/04 05:42:48;;;;;;;89.10;17.60;;;0.00;99.90;;;;;;4992981;28;20045;-83
2022/12/04 05:45:14;;;;;;;30.90;11.40;;;0.10;99.90;;;;;;4977108;28;20045;-86
2022/12/04 05:47:42;;;;;;;45.20;17.25;;;0.00;99.90;;;;;;4994604;28;20030;-79
2022/12/04 05:50:10;;;;;;;61.17;13.90;;;0.00;99.90;;;;;;5004188;28;20037;-84
2022/12/04 05:52:36;;;;;;;27.50;12.10;;;0.00;99.90;;;;;;4980369;28;20034;-84
2022/12/04 05:55:01;;;;;;;91.20;24.63;;;-0.10;99.90;;;;;;4983436;28;20598;-85
2022/12/04 05:57:27;;;;;;;33.65;13.40;;;-0.10;99.90;;;;;;4991766;28;20035;-84
2022/12/04 05:59:53;;;;;;;22.15;13.20;;;0.00;99.90;;;;;;4986928;28;20086;-84
2022/12/04 06:02:18;;;;;;;21.17;12.18;;;0.00;99.90;;;;;;4988803;28;20037;-84
2022/12/04 06:04:44;;;;;;;14.38;11.93;;;0.10;99.90;;;;;;4993654;28;20499;-83
2022/12/04 06:07:10;;;;;;;14.75;11.15;;;0.10;99.90;;;;;;4975907;28;20042;-80
2022/12/04 06:09:37;;;;;;;19.75;12.57;;;0.10;99.90;;;;;;4998347;28;20041;-80
2022/12/04 06:12:04;;;;;;;25.45;13.75;;;0.10;99.90;;;;;;5001218;28;20064;-85
2022/12/04 06:14:29;;;;;;;19.60;14.02;;;0.10;99.90;;;;;;4989874;28;20026;-85
2022/12/04 06:16:55;;;;;;;16.88;12.95;;;-0.10;99.90;;;;;;4980129;28;20027;-87
2022/12/04 06:19:22;;;;;;;23.73;12.77;;;-0.10;99.90;;;;;;4999597;28;20496;-83
2022/12/04 06:21:50;;;;;;;23.42;10.88;;;0.00;99.90;;;;;;4996982;28;20058;-83
2022/12/04 06:24:20;;;;;;;50.00;13.07;;;0.10;99.90;;;;;;5001769;28;20034;-82
2022/12/04 06:26:46;;;;;;;63.13;17.95;;;0.20;99.90;;;;;;5008287;28;20040;-82
2022/12/04 06:29:13;;;;;;;43.47;12.40;;;0.10;99.90;;;;;;4999556;28;20674;-82
2022/12/04 06:31:40;;;;;;;34.72;11.13;;;0.00;99.90;;;;;;4998170;28;20074;-85
2022/12/04 06:34:07;;;;;;;25.33;12.00;;;0.00;99.90;;;;;;5001726;28;20037;-82
2022/12/04 06:36:33;;;;;;;20.75;11.48;;;0.10;99.90;;;;;;4997074;28;20029;-82
2022/12/04 06:38:59;;;;;;;16.85;12.27;;;0.00;99.90;;;;;;4996466;28;20125;-82
2022/12/04 06:41:26;;;;;;;37.50;14.13;;;-0.10;99.90;;;;;;4998376;28;20171;-83
2022/12/04 06:43:52;;;;;;;30.65;11.65;;;0.00;99.90;;;;;;4997505;28;20037;-83
2022/12/04 06:46:23;;;;;;;49.15;13.07;;;0.10;99.90;;;;;;5002312;28;20038;-82
2022/12/04 06:48:49;;;;;;;32.40;16.30;;;0.20;99.90;;;;;;4992972;28;20031;-83
2022/12/04 06:51:23;;;;;;;69.93;15.52;;;0.20;99.90;;;;;;5003481;28;20053;-82
2022/12/04 06:53:48;;;;;;;117.80;18.98;;;0.10;99.90;;;;;;4975037;28;20043;-84
2022/12/04 06:56:17;;;;;;;102.35;17.70;;;0.30;99.90;;;;;;4996952;28;20066;-85
2022/12/04 06:58:47;;;;;;;38.65;11.93;;;0.20;99.90;;;;;;5000424;28;20030;-84
2022/12/04 07:01:15;;;;;;;91.25;14.77;;;0.10;99.90;;;;;;4994072;28;20042;-82
2022/12/04 07:03:41;;;;;;;99.03;16.35;;;0.00;99.90;;;;;;4985468;28;20038;-83
2022/12/04 07:06:21;;;;;;;35.60;15.57;;;0.00;99.90;;;;;;4992273;28;20458;-81
2022/12/04 07:08:50;;;;;;;84.60;16.63;;;0.10;99.90;;;;;;5002263;28;20084;-87
2022/12/04 07:11:16;;;;;;;46.10;13.43;;;0.10;99.90;;;;;;4997049;28;20412;-80
2022/12/04 07:13:43;;;;;;;22.48;11.73;;;0.10;99.90;;;;;;4996477;28;20040;-83
2022/12/04 07:16:11;;;;;;;25.73;14.15;;;0.20;99.90;;;;;;4996868;28;20026;-89
2022/12/04 07:18:37;;;;;;;34.17;15.23;;;0.20;99.90;;;;;;4992851;28;20707;-84
2022/12/04 07:21:09;;;;;;;38.80;12.40;;;0.10;99.90;;;;;;4993213;28;20049;-83
2022/12/04 07:23:35;;;;;;;22.92;11.25;;;0.10;99.90;;;;;;4988648;28;20049;-81
2022/12/04 07:26:09;;;;;;;37.33;14.48;;;-0.10;99.90;;;;;;4996707;28;20030;-82
2022/12/04 07:28:35;;;;;;;22.42;12.15;;;0.10;99.90;;;;;;4994819;28;20046;-83
2022/12/04 07:31:14;;;;;;;33.88;12.48;;;0.20;99.90;;;;;;4990084;28;20031;-84
2022/12/04 07:33:40;;;;;;;27.92;12.15;;;0.20;99.90;;;;;;4993220;28;20088;-83
2022/12/04 07:36:09;;;;;;;13.30;10.55;;;0.10;99.90;;;;;;5000111;28;20034;-84
2022/12/04 07:38:35;;;;;;;11.75;9.63;;;0.20;99.90;;;;;;4995787;28;20022;-88
2022/12/04 07:41:02;;;;;;;11.52;9.73;;;0.20;99.90;;;;;;4990362;28;20054;-84
2022/12/04 07:43:29;;;;;;;37.85;9.85;;;0.30;99.90;;;;;;5005319;28;20049;-80
2022/12/04 07:45:55;;;;;;;23.67;10.75;;;0.20;99.90;;;;;;4990085;28;20035;-85
2022/12/04 07:48:21;;;;;;;29.75;13.48;;;0.10;99.90;;;;;;4996059;28;20049;-78
2022/12/04 07:50:47;;;;;;;65.95;16.30;;;0.20;99.90;;;;;;4996505;28;20108;-80
2022/12/04 07:53:13;;;;;;;76.60;17.52;;;0.10;99.90;;;;;;4987558;28;20018;-81
2022/12/04 07:55:38;;;;;;;60.30;15.38;;;0.10;99.90;;;;;;4973479;28;20026;-78
2022/12/04 07:58:04;;;;;;;36.22;13.60;;;0.10;99.90;;;;;;4988739;28;20700;-79
2022/12/04 08:00:30;;;;;;;40.35;15.15;;;0.20;99.90;;;;;;4993464;28;20050;-81
2022/12/04 08:02:56;;;;;;;67.32;14.88;;;0.20;99.90;;;;;;4995325;28;20538;-81
2022/12/04 08:05:21;;;;;;;89.25;19.38;;;0.30;99.90;;;;;;4996382;28;20035;-79
2022/12/04 08:07:47;;;;;;;64.25;16.70;;;0.30;99.90;;;;;;4986177;28;20026;-77
2022/12/04 08:10:13;;;;;;;24.05;12.85;;;0.10;99.90;;;;;;4991368;28;20401;-86
2022/12/04 08:12:38;;;;;;;42.20;15.18;;;0.10;99.90;;;;;;4999034;28;20068;-86
2022/12/04 08:15:05;;;;;;;56.25;14.75;;;0.20;99.90;;;;;;4991064;28;20030;-78
2022/12/04 08:17:31;;;;;;;36.67;15.38;;;0.30;99.90;;;;;;4995517;28;20057;-85
2022/12/04 08:19:56;;;;;;;31.13;14.15;;;0.40;99.90;;;;;;4997941;28;20045;-87
2022/12/04 08:22:22;;;;;;;23.60;14.10;;;0.50;99.90;;;;;;4970012;28;20033;-86
2022/12/04 08:24:48;;;;;;;36.60;14.52;;;0.50;99.90;;;;;;4992876;28;20027;-83
2022/12/04 08:27:14;;;;;;;54.55;15.27;;;0.60;99.90;;;;;;4991747;28;21556;-81
2022/12/04 08:29:39;;;;;;;39.92;11.65;;;0.40;99.90;;;;;;4988096;28;20049;-80
2022/12/04 08:32:06;;;;;;;49.95;13.23;;;0.40;99.90;;;;;;4995337;28;20030;-82
2022/12/04 08:34:31;;;;;;;55.67;13.45;;;0.30;99.90;;;;;;4983795;28;20058;-85
2022/12/04 08:36:57;;;;;;;46.05;16.45;;;0.40;99.90;;;;;;5008957;28;20065;-84
2022/12/04 08:39:23;;;;;;;12.20;10.52;;;0.30;99.90;;;;;;4995985;28;20080;-80
2022/12/04 08:41:49;;;;;;;24.33;12.80;;;0.20;99.90;;;;;;4993985;28;20026;-77
2022/12/04 08:44:14;;;;;;;59.47;14.70;;;0.30;99.90;;;;;;4990634;28;20041;-82
2022/12/04 08:46:40;;;;;;;44.55;13.88;;;0.30;99.90;;;;;;4995362;28;20134;-82
2022/12/04 08:49:06;;;;;;;38.50;12.85;;;0.40;99.90;;;;;;5000216;28;20105;-81
2022/12/04 08:51:42;;;;;;;18.23;10.38;;;0.30;99.90;;;;;;5011021;28;20030;-90
2022/12/04 08:54:11;;;;;;;59.05;13.25;;;0.30;99.90;;;;;;5002362;28;20084;-90
2022/12/04 08:56:36;;;;;;;37.28;10.93;;;0.40;99.90;;;;;;5025287;28;20488;-91
2022/12/04 08:59:03;;;;;;;28.77;11.52;;;0.30;99.90;;;;;;5004404;28;20121;-90
2022/12/04 09:01:29;;;;;;;45.60;12.95;;;0.30;99.90;;;;;;4999747;28;20444;-90
2022/12/04 09:03:55;;;;;;;168.88;44.47;;;0.40;99.90;;;;;;5001977;28;20053;-85
2022/12/04 09:06:21;;;;;;;39.80;12.73;;;0.30;99.90;;;;;;4994658;28;20096;-91
2022/12/04 09:08:47;;;;;;;76.95;17.40;;;0.40;99.90;;;;;;5000274;28;20108;-84
2022/12/04 09:11:16;;;;;;;45.72;13.80;;;0.40;99.90;;;;;;5002614;28;20485;-80
2022/12/04 09:13:43;;;;;;;27.73;11.88;;;0.60;99.90;;;;;;4993801;28;20026;-80
2022/12/04 09:16:12;;;;;;;29.25;10.70;;;0.50;99.90;;;;;;4983628;28;20034;-80
2022/12/04 09:18:38;;;;;;;38.95;14.52;;;0.60;99.90;;;;;;4991812;28;20034;-83
2022/12/04 09:21:07;;;;;;;25.83;13.85;;;0.60;99.90;;;;;;4971585;28;20049;-80
2022/12/04 09:23:35;;;;;;;32.05;15.68;;;0.50;99.90;;;;;;4986208;28;20519;-83
2022/12/04 09:26:02;;;;;;;20.52;13.07;;;0.60;99.90;;;;;;4991296;28;20077;-84
2022/12/04 09:28:28;;;;;;;25.65;13.70;;;0.70;99.90;;;;;;4987445;28;20046;-82
2022/12/04 09:31:04;;;;;;;25.65;13.57;;;0.70;99.90;;;;;;4984716;28;20037;-84
2022/12/04 09:33:30;;;;;;;28.83;11.55;;;0.70;99.90;;;;;;4984502;28;20480;-85
2022/12/04 09:36:02;;;;;;;36.72;13.93;;;0.90;99.90;;;;;;4980865;28;20086;-83
2022/12/04 09:38:29;;;;;;;48.92;15.70;;;0.70;99.90;;;;;;4982386;28;20052;-86
2022/12/04 09:41:13;;;;;;;34.47;14.57;;;0.60;99.90;;;;;;4985590;28;20030;-78
2022/12/04 09:43:47;;;;;;;19.98;10.48;;;0.60;99.90;;;;;;5007539;28;20065;-81
2022/12/04 09:46:39;;;;;;;31.02;11.55;;;0.90;99.90;;;;;;4999320;28;20121;-82
2022/12/04 09:49:11;;;;;;;14.65;11.00;;;1.10;99.90;;;;;;4995022;28;20508;-80
2022/12/04 09:51:39;;;;;;;19.02;12.68;;;1.00;99.90;;;;;;4992889;28;20118;-83
2022/12/04 09:54:12;;;;;;;33.45;29.52;;;1.10;99.90;;;;;;4993968;28;20030;-81
2022/12/04 09:56:39;;;;;;;21.17;16.85;;;1.00;99.90;;;;;;5001953;28;20067;-78
2022/12/04 09:59:14;;;;;;;19.70;11.75;;;1.00;99.90;;;;;;4997878;28;20064;-79
2022/12/04 10:01:52;;;;;;;9.52;8.55;;;1.00;99.90;;;;;;4989421;28;20049;-79
2022/12/04 10:04:18;;;;;;;12.32;10.35;;;1.00;99.90;;;;;;4992313;28;20030;-77
2022/12/04 10:07:06;;;;;;;13.90;11.30;;;1.00;99.90;;;;;;4991389;28;20087;-81
2022/12/04 10:09:54;;;;;;;19.35;13.95;;;1.00;99.90;;;;;;4996592;28;20091;-81
2022/12/04 10:12:48;;;;;;;16.52;10.98;;;0.90;99.90;;;;;;4990380;28;20114;-82
2022/12/04 10:15:25;;;;;;;14.75;13.23;;;1.00;99.90;;;;;;4986760;28;20019;-80
2022/12/04 10:18:04;;;;;;;22.80;14.23;;;0.90;99.90;;;;;;4997216;28;20030;-77
2022/12/04 10:20:39;;;;;;;38.13;12.57;;;0.90;99.90;;;;;;4997253;28;20056;-79
2022/12/04 10:23:25;;;;;;;12.45;10.10;;;0.90;99.90;;;;;;4993014;28;20026;-81
2022/12/04 10:25:54;;;;;;;19.27;10.52;;;0.90;99.90;;;;;;5001015;28;20057;-82
2022/12/04 10:28:37;;;;;;;15.48;11.15;;;1.00;99.90;;;;;;4997773;28;20042;-79
2022/12/04 10:31:09;;;;;;;31.90;12.55;;;1.10;99.90;;;;;;4995661;28;20030;-79
2022/12/04 10:33:52;;;;;;;25.35;12.60;;;1.20;99.90;;;;;;4990922;28;20029;-82
2022/12/04 10:36:22;;;;;;;18.30;12.20;;;1.10;99.90;;;;;;4985186;28;20035;-86
2022/12/04 10:38:56;;;;;;;24.95;10.02;;;1.10;99.90;;;;;;4998129;28;20037;-84
2022/12/04 10:41:42;;;;;;;18.42;9.70;;;1.30;99.90;;;;;;4993823;28;20042;-83
2022/12/04 10:44:13;;;;;;;16.75;10.20;;;1.60;99.90;;;;;;4996906;28;20164;-84
2022/12/04 10:46:40;;;;;;;12.77;9.38;;;1.60;99.90;;;;;;4985286;28;20026;-84
2022/12/04 10:49:16;;;;;;;14.63;10.45;;;1.70;99.90;;;;;;4993237;28;20169;-84
2022/12/04 10:51:43;;;;;;;23.75;13.15;;;1.70;99.90;;;;;;4993051;28;20014;-82
2022/12/04 10:54:15;;;;;;;16.05;10.57;;;1.80;99.90;;;;;;4995552;28;20112;-85
2022/12/04 10:56:59;;;;;;;20.25;12.45;;;1.70;99.90;;;;;;5001548;28;20529;-84
2022/12/04 10:59:26;;;;;;;14.65;11.07;;;1.50;99.90;;;;;;5009588;28;20096;-86
2022/12/04 11:01:59;;;;;;;14.38;10.65;;;1.40;99.90;;;;;;4995744;28;20031;-86
2022/12/04 11:04:26;;;;;;;15.93;10.05;;;1.30;99.90;;;;;;4995153;28;20077;-82
2022/12/04 11:07:21;;;;;;;11.63;10.30;;;1.30;99.90;;;;;;4991553;28;20038;-84
2022/12/04 11:10:02;;;;;;;25.52;11.27;;;1.60;99.90;;;;;;4996747;28;20034;-82
2022/12/04 11:12:28;;;;;;;16.15;11.45;;;1.60;99.90;;;;;;4996695;28;20026;-85
2022/12/04 11:15:02;;;;;;;12.05;9.85;;;1.80;99.90;;;;;;4997298;28;20113;-80
2022/12/04 11:17:30;;;;;;;16.33;10.57;;;1.70;99.90;;;;;;4991675;28;20677;-81
2022/12/04 11:20:03;;;;;;;14.57;12.13;;;1.60;99.90;;;;;;4991192;28;20088;-83
2022/12/04 11:22:30;;;;;;;15.10;11.38;;;1.60;99.90;;;;;;4988493;28;20035;-83
2022/12/04 11:24:57;;;;;;;28.52;19.48;;;1.50;99.90;;;;;;4994274;28;20650;-83
2022/12/04 11:27:31;;;;;;;15.60;12.23;;;1.60;99.90;;;;;;4995388;28;20050;-83
2022/12/04 11:30:01;;;;;;;17.15;13.45;;;1.60;99.90;;;;;;4995563;28;20042;-80
2022/12/04 11:32:32;;;;;;;19.50;13.18;;;1.40;99.90;;;;;;5007987;28;20460;-83
2022/12/04 11:35:13;;;;;;;18.48;11.88;;;1.40;99.90;;;;;;5019534;28;20482;-83
2022/12/04 11:37:40;;;;;;;15.80;12.25;;;1.30;99.90;;;;;;5003233;28;20034;-85
2022/12/04 11:40:16;;;;;;;21.70;13.23;;;1.30;99.90;;;;;;5018389;28;20756;-86
2022/12/04 11:42:41;;;;;;;11.38;10.27;;;1.40;99.90;;;;;;5009775;28;20037;-85
2022/12/04 11:45:22;;;;;;;15.10;11.13;;;1.40;99.90;;;;;;5012404;28;20033;-82
2022/12/04 11:48:01;;;;;;;15.43;10.55;;;1.20;99.90;;;;;;5034834;28;20029;-85
2022/12/04 11:50:50;;;;;;;12.52;11.20;;;1.20;99.90;;;;;;5013712;28;20054;-85
2022/12/04 11:53:34;;;;;;;15.50;12.32;;;1.30;99.90;;;;;;5013099;28;20025;-80
2022/12/04 11:56:02;;;;;;;18.63;12.30;;;1.20;99.90;;;;;;5012518;28;20029;-79
2022/12/04 11:58:47;;;;;;;16.80;11.85;;;1.20;99.90;;;;;;5014856;28;20034;-85
2022/12/04 12:01:32;;;;;;;20.48;11.68;;;1.20;99.90;;;;;;5008611;28;20119;-85
2022/12/04 12:04:24;;;;;;;17.40;12.48;;;1.20;99.90;;;;;;5009860;28;20052;-84
2022/12/04 12:06:58;;;;;;;31.08;14.95;;;1.30;99.90;;;;;;4984198;28;20732;-83
2022/12/04 12:10:02;;;;;;;21.13;14.10;;;1.10;99.90;;;;;;4984594;28;20030;-87
2022/12/04 12:13:09;;;;;;;22.35;11.63;;;1.10;99.90;;;;;;4985108;28;20034;-86
2022/12/04 12:16:05;;;;;;;29.65;11.90;;;1.00;99.90;;;;;;4986393;28;20065;-86
2022/12/04 12:19:09;;;;;;;23.38;13.88;;;1.10;99.90;;;;;;4979466;28;20034;-86
2022/12/04 12:21:48;;;;;;;31.90;12.15;;;1.10;99.90;;;;;;4988693;28;20409;-87
2022/12/04 12:24:33;;;;;;;19.13;11.65;;;1.10;99.90;;;;;;5014785;28;20033;-85
2022/12/04 12:27:17;;;;;;;36.42;13.60;;;1.40;99.90;;;;;;5006754;28;20048;-87
2022/12/04 12:29:52;;;;;;;15.85;10.73;;;1.50;99.90;;;;;;4995802;28;20034;-85
2022/12/04 12:32:49;;;;;;;21.65;10.60;;;1.60;99.90;;;;;;5015911;28;20088;-83
2022/12/04 12:35:34;;;;;;;32.35;11.77;;;1.70;99.90;;;;;;5018441;28;20056;-86
2022/12/04 12:38:04;;;;;;;14.27;10.55;;;1.50;99.90;;;;;;5022802;28;20027;-83
2022/12/04 12:40:38;;;;;;;35.28;16.70;;;1.50;99.90;;;;;;5012523;28;20048;-84
2022/12/04 12:43:15;;;;;;;25.15;11.88;;;1.20;99.90;;;;;;5016488;28;20029;-83
2022/12/04 12:45:51;;;;;;;16.85;13.60;;;1.30;99.90;;;;;;5022283;28;20295;-82
2022/12/04 12:48:34;;;;;;;17.90;13.00;;;1.20;99.90;;;;;;5014247;28;20129;-80
2022/12/04 12:51:07;;;;;;;16.95;11.52;;;1.20;99.90;;;;;;5008351;28;20022;-80
2022/12/04 12:53:40;;;;;;;20.98;12.25;;;1.30;99.90;;;;;;5016743;28;20026;-83
2022/12/04 12:56:10;;;;;;;22.63;13.15;;;1.40;99.90;;;;;;5009458;28;20044;-81
2022/12/04 12:58:41;;;;;;;23.42;13.45;;;1.60;99.90;;;;;;5014235;28;20056;-84
2022/12/04 13:01:42;;;;;;;32.67;14.80;;;1.60;99.90;;;;;;5005264;28;20026;-83
2022/12/04 13:04:40;;;;;;;116.03;19.58;;;1.50;99.90;;;;;;5011299;28;20026;-85
2022/12/04 13:07:21;;;;;;;50.30;20.15;;;1.20;99.90;;;;;;5009790;28;20045;-80
2022/12/04 13:10:02;;;;;;;73.35;17.75;;;1.20;99.90;;;;;;5007645;28;20141;-82
2022/12/04 13:12:33;;;;;;;48.25;14.30;;;1.30;99.90;;;;;;5009156;28;20099;-87